Main page
METAR-TAF:

METAR-TAF

Airports :

Cam Ranh International Airport

Cam Ranh, Vietnam

latitude: 11-59-53N, longitude: 109-13-10E, elevation: 12 m

Current weather observation

The report was made 29 minutes ago, at 09:30 UTC
Wind 16 kt from the East/Northeast
Temperature 28°C
Humidity 66%
Pressure 1014 hPa
Visibility 10 km or more
Few clouds at a height of 1500 ft

METAR: VVCR 240930Z 06016KT 9999 FEW015 28/21 Q1014 NOSIG

Time: 16:59 (09:59 UTC)

Forecast

The report was made 4 hours and 59 minutes ago, at 05:00 UTC
Forecast valid from 24 at 06 UTC to 25 at 06 UTC
Wind 16 kt from the Northeast
Visibility 10 km or more
Few clouds at a height of 1500 ft
Becoming
from 24 at 15 UTC to 24 at 16 UTC
Wind 8 kt from the North/Northwest
Becoming
from 25 at 01 UTC to 25 at 02 UTC
Wind 15 kt from the Northeast

TAF: VVCR 240500Z 2406/2506 05016KT 9999 FEW015 BECMG 2415/2416 33008KT BECMG 2501/2502 05015KT

Weather observations and forecasts of more than 4000 airports (METAR and TAF reports).

The available stations are represented by yellow and red dots on the map.

Hover mouse over dot to see the name of the station.

Then click to see weather observations and forecasts.

To change the map : click on the green buttons with a black cross to zoom in, on the green button with a dash to zoom out, or on the green arrows for adjacent maps.


METAR-TAF: